KNIP/NIP METAR and TAF weather

Enter ICAO airport designator
Station Type Date Time Source
KNIP METAR 2023/01/30 11:53 UTC NOAA

KNIP 301153Z 19004KT 10SM FEW050 BKN110 18/17 A3019 RMK AO2 SLP217 60001 70001 T01780167 10200 20167 53006


Station Type Date Time Source
KNIP Decoded METAR 2023/01/30 11:53 UTC NOAA

JACKSONVILLE NAVAL AIR STN, FL, United States (KNIP) 30-14N 81-40W 8M
Jan 30, 2023 - 06:53 AM EST / 2023.01.30 1153 UTC
Wind: from the S (190 degrees) at 5 MPH (4 KT):0
Visibility: 10 mile(s):0
Sky conditions: mostly cloudy
Temperature: 64.0 F (17.8 C)
Dew Point: 62.1 F (16.7 C)
Relative Humidity: 93%
Pressure (altimeter): 30.19 in. Hg (1022 hPa)
Pressure tendency: 0.02 inches (0.6 hPa) higher than three hours ago
ob: KNIP 301153Z 19004KT 10SM FEW050 BKN110 18/17 A3019 RMK AO2 SLP217 60001 70001 T01780167 10200 20167 53006
cycle: 12

Station Type Date Time Source
KNIP TAF 2023/01/30 10:27 UTC NOAA

TAF
AMD KNIP 3010/3107 VRB03KT 9999 FEW050 SCT150 QNH3015INS
FM301500 21008KT 9999 FEW030 SCT120 QN3019INS
FM301900 22009KT 9999 SCT040 BKN150 QNH3013INS
FM310000 23005KT 9999 SCT050 SCT150 QNH3014INS
FM310600 25004KT 9999 FEW007 BKN040 BKN250 QNH3012INS T17/3013Z T28/3020Z
AMD 1016 FN20019

Example: see airport list